Time;durP1;ratioP1;P1;durP2;ratioP2;P2;SDS_P1;SDS_P2;PMS_P1;PMS_P2;Temp;Humidity;BMP_temperature;BMP_pressure;BME280_temperature;BME280_humidity;BME280_pressure;Samples;Min_cycle;Max_cycle;Signal;HPM_P1;HPM_P2
2023/09/11 00:00:59;;;;;;;;;;;26.50;72.60;;;;;;5096633;28;20601;-35
2023/09/11 00:03:25;;;;;;;;;;;26.50;73.40;;;;;;5087580;28;19916;-35
2023/09/11 00:05:51;;;;;;;;;;;26.50;73.30;;;;;;5082987;28;19922;-35
2023/09/11 00:08:17;;;;;;;;;;;26.40;73.30;;;;;;5096553;28;19952;-35
2023/09/11 00:10:43;;;;;;;;;;;26.40;73.50;;;;;;5083779;28;20030;-35
2023/09/11 00:13:09;;;;;;;;;;;26.40;73.90;;;;;;5089941;28;19923;-36
2023/09/11 00:15:35;;;;;;;;;;;26.40;74.10;;;;;;5083001;28;19917;-35
2023/09/11 00:18:01;;;;;;;;;;;26.40;74.40;;;;;;5085657;28;19920;-35
2023/09/11 00:20:27;;;;;;;;;;;26.40;74.60;;;;;;5088775;28;19926;-36
2023/09/11 00:22:52;;;;;;;;;;;26.40;74.30;;;;;;5098740;28;19916;-36
2023/09/11 00:25:18;;;;;;;;;;;26.40;74.10;;;;;;5090623;28;20560;-35
2023/09/11 00:27:44;;;;;;;;;;;26.40;74.20;;;;;;5097951;28;20053;-36
2023/09/11 00:30:10;;;;;;;;;;;26.40;74.20;;;;;;5095050;28;19912;-35
2023/09/11 00:32:36;;;;;;;;;;;26.40;74.20;;;;;;5091515;28;19923;-36
2023/09/11 00:35:02;;;;;;;;;;;26.40;74.30;;;;;;5094001;28;19947;-35
2023/09/11 00:37:28;;;;;;;;;;;26.40;74.30;;;;;;5091945;28;19916;-36
2023/09/11 00:39:54;;;;;;;;;;;26.40;74.30;;;;;;5101290;28;19991;-36
2023/09/11 00:42:20;;;;;;;;;;;26.40;74.40;;;;;;5091438;28;19912;-35
2023/09/11 00:44:45;;;;;;;;;;;26.40;74.40;;;;;;5088773;28;20392;-36
2023/09/11 00:47:11;;;;;;;;;;;26.40;74.50;;;;;;5086313;28;20370;-35
2023/09/11 00:49:37;;;;;;;;;;;26.40;74.90;;;;;;5089664;28;19916;-36
2023/09/11 00:52:03;;;;;;;;;;;26.30;75.20;;;;;;5089334;28;19970;-35
2023/09/11 00:54:29;;;;;;;;;;;26.30;75.50;;;;;;5098267;28;19920;-35
2023/09/11 00:56:55;;;;;;;;;;;26.40;75.70;;;;;;5092871;28;19921;-36
2023/09/11 00:59:21;;;;;;;;;;;26.30;75.70;;;;;;5092981;28;19924;-37
2023/09/11 01:01:47;;;;;;;;;;;26.30;75.90;;;;;;5094418;28;19916;-35
2023/09/11 01:04:13;;;;;;;;;;;26.30;76.00;;;;;;5096419;28;19952;-35
2023/09/11 01:06:39;;;;;;;;;;;26.30;75.90;;;;;;5090234;28;20006;-36
2023/09/11 01:09:05;;;;;;;;;;;26.30;75.80;;;;;;5096355;28;19916;-36
2023/09/11 01:11:31;;;;;;;;;;;26.30;75.80;;;;;;5097506;28;19913;-36
2023/09/11 01:13:57;;;;;;;;;;;26.30;75.70;;;;;;5092891;28;20023;-35
2023/09/11 01:16:32;;;;;;;;;;;26.30;75.70;;;;;;5086163;28;19920;-35
2023/09/11 01:19:10;;;;;;;;;;;26.30;75.60;;;;;;5092854;28;19924;-36
2023/09/11 01:21:46;;;;;;;;;;;26.30;75.50;;;;;;5094409;28;19924;-36
2023/09/11 01:24:39;;;;;;;;;;;26.30;75.60;;;;;;5037031;28;19917;-35
2023/09/11 01:27:23;;;;;;;;;;;26.30;75.40;;;;;;5056284;28;19917;-35
2023/09/11 01:29:48;;;;;;;;;;;26.30;75.40;;;;;;5037719;28;19960;-36
2023/09/11 01:32:17;;;;;;;;;;;26.30;75.30;;;;;;5034661;28;19921;-35
2023/09/11 01:34:43;;;;;;;;;;;26.30;75.30;;;;;;5055292;28;19929;-35
2023/09/11 01:37:09;;;;;;;;;;;26.30;75.40;;;;;;5035416;28;19987;-35
2023/09/11 01:39:35;;;;;;;;;;;26.30;75.40;;;;;;5040467;28;19925;-35
2023/09/11 01:42:04;;;;;;;;;;;26.30;75.50;;;;;;5039896;28;19917;-36
2023/09/11 01:44:30;;;;;;;;;;;26.20;75.40;;;;;;5024474;28;19917;-35
2023/09/11 01:46:57;;;;;;;;;;;26.20;75.40;;;;;;5032293;28;19979;-35
2023/09/11 01:49:23;;;;;;;;;;;26.20;75.50;;;;;;5055612;28;19917;-35
2023/09/11 01:51:50;;;;;;;;;;;26.20;75.50;;;;;;5016575;28;19924;-35
2023/09/11 01:54:16;;;;;;;;;;;26.20;75.40;;;;;;5040274;28;19960;-36
2023/09/11 01:56:42;;;;;;;;;;;26.20;75.30;;;;;;5032750;28;20405;-35
2023/09/11 01:59:08;;;;;;;;;;;26.20;75.30;;;;;;5029761;28;19933;-35
2023/09/11 02:01:34;;;;;;;;;;;26.20;75.10;;;;;;5059312;28;20404;-35
2023/09/11 02:04:00;;;;;;;;;;;26.20;75.00;;;;;;5101428;28;19916;-35
2023/09/11 02:06:26;;;;;;;;;;;26.20;74.90;;;;;;5098072;28;19917;-35
2023/09/11 02:08:53;;;;;;;;;;;26.20;74.90;;;;;;5100155;28;19924;-35
2023/09/11 02:11:22;;;;;;;;;;;26.20;74.80;;;;;;5111033;28;19965;-35
2023/09/11 02:13:47;;;;;;;;;;;26.20;74.70;;;;;;5086927;28;19917;-35
2023/09/11 02:16:13;;;;;;;;;;;26.10;74.60;;;;;;5089000;28;19935;-35
2023/09/11 02:18:40;;;;;;;;;;;26.10;74.90;;;;;;5101669;28;19924;-36
2023/09/11 02:21:06;;;;;;;;;;;26.20;75.20;;;;;;5095217;28;19923;-35
2023/09/11 02:23:32;;;;;;;;;;;26.10;75.20;;;;;;5102480;28;20001;-35
2023/09/11 02:25:59;;;;;;;;;;;26.10;75.20;;;;;;5099503;28;19916;-35
2023/09/11 02:28:26;;;;;;;;;;;26.10;75.20;;;;;;5095188;28;19914;-35
2023/09/11 02:30:52;;;;;;;;;;;26.10;75.20;;;;;;5100969;28;19916;-36
2023/09/11 02:33:18;;;;;;;;;;;26.10;75.20;;;;;;5097271;28;19917;-36
2023/09/11 02:35:44;;;;;;;;;;;26.10;75.20;;;;;;5098469;28;19928;-35
2023/09/11 02:38:10;;;;;;;;;;;26.10;75.10;;;;;;5089573;28;19921;-36
2023/09/11 02:40:37;;;;;;;;;;;26.10;75.00;;;;;;5102058;28;19923;-35
2023/09/11 02:43:21;;;;;;;;;;;26.10;74.70;;;;;;5138938;27;19982;-35
2023/09/11 02:45:47;;;;;;;;;;;26.10;74.70;;;;;;5127000;28;19916;-35
2023/09/11 02:48:13;;;;;;;;;;;26.10;74.60;;;;;;5116442;28;19951;-35
2023/09/11 02:50:39;;;;;;;;;;;26.10;74.70;;;;;;5114568;28;19916;-36
2023/09/11 02:53:13;;;;;;;;;;;26.10;74.60;;;;;;5127898;28;19920;-36
2023/09/11 02:55:39;;;;;;;;;;;26.00;74.40;;;;;;5121152;28;19923;-35
2023/09/11 02:58:05;;;;;;;;;;;26.10;74.50;;;;;;5120722;28;19969;-35
2023/09/11 03:00:34;;;;;;;;;;;26.00;74.80;;;;;;5132151;28;19957;-35
2023/09/11 03:03:01;;;;;;;;;;;26.00;74.90;;;;;;5123474;28;19977;-36
2023/09/11 03:05:27;;;;;;;;;;;26.00;75.10;;;;;;5138505;28;19916;-35
2023/09/11 03:07:53;;;;;;;;;;;26.00;75.10;;;;;;5115008;28;19916;-36
2023/09/11 03:10:19;;;;;;;;;;;26.00;75.10;;;;;;5114049;28;20200;-36
2023/09/11 03:12:45;;;;;;;;;;;26.00;75.20;;;;;;5112556;28;20043;-36
2023/09/11 03:15:11;;;;;;;;;;;26.00;75.20;;;;;;5116372;28;19935;-35
2023/09/11 03:17:37;;;;;;;;;;;26.00;75.20;;;;;;5083400;28;19924;-36
2023/09/11 03:20:05;;;;;;;;;;;25.90;74.90;;;;;;5124667;28;19915;-36
2023/09/11 03:22:31;;;;;;;;;;;25.90;74.70;;;;;;5116029;28;19983;-36
2023/09/11 03:24:57;;;;;;;;;;;25.90;74.60;;;;;;5119451;28;19938;-36
2023/09/11 03:27:23;;;;;;;;;;;25.90;74.60;;;;;;5106602;28;19915;-35
2023/09/11 03:29:52;;;;;;;;;;;25.90;74.60;;;;;;5120492;28;20285;-35
2023/09/11 03:32:17;;;;;;;;;;;25.90;74.60;;;;;;5120347;28;19991;-35
2023/09/11 03:34:43;;;;;;;;;;;25.90;74.60;;;;;;5118876;28;19919;-35
2023/09/11 03:37:09;;;;;;;;;;;25.90;74.60;;;;;;5124922;28;19911;-36
2023/09/11 03:39:35;;;;;;;;;;;25.90;74.50;;;;;;5127562;28;19947;-35
2023/09/11 03:42:01;;;;;;;;;;;25.90;74.70;;;;;;5124139;28;19931;-35
2023/09/11 03:44:27;;;;;;;;;;;25.90;75.00;;;;;;5114440;28;19984;-36
2023/09/11 03:46:52;;;;;;;;;;;25.90;75.00;;;;;;5117305;28;20655;-35
2023/09/11 03:49:18;;;;;;;;;;;25.80;75.00;;;;;;5108908;28;19935;-36
2023/09/11 03:51:44;;;;;;;;;;;25.80;75.00;;;;;;5110594;28;19924;-35
2023/09/11 03:54:10;;;;;;;;;;;25.80;75.00;;;;;;5105638;28;20395;-36
2023/09/11 03:56:36;;;;;;;;;;;25.80;75.00;;;;;;5097585;28;20455;-36
2023/09/11 03:59:02;;;;;;;;;;;25.80;75.10;;;;;;5105229;28;19938;-35
2023/09/11 04:01:28;;;;;;;;;;;25.80;74.90;;;;;;5105870;28;19912;-35
2023/09/11 04:03:54;;;;;;;;;;;25.80;74.70;;;;;;5114445;28;20035;-35
2023/09/11 04:06:20;;;;;;;;;;;25.80;74.60;;;;;;5107808;28;19923;-36
2023/09/11 04:08:48;;;;;;;;;;;25.80;74.70;;;;;;5117994;28;19943;-35
2023/09/11 04:11:15;;;;;;;;;;;25.80;74.60;;;;;;5112852;28;20022;-35
2023/09/11 04:13:40;;;;;;;;;;;25.80;74.70;;;;;;5103390;28;19912;-35
2023/09/11 04:16:06;;;;;;;;;;;25.80;74.70;;;;;;5112724;28;20006;-35
2023/09/11 04:18:32;;;;;;;;;;;25.80;74.80;;;;;;5093547;28;19916;-40
2023/09/11 04:21:02;;;;;;;;;;;25.80;74.90;;;;;;5093955;28;20011;-35
2023/09/11 04:23:28;;;;;;;;;;;25.70;74.70;;;;;;5105605;28;19920;-35
2023/09/11 04:25:54;;;;;;;;;;;25.70;74.70;;;;;;5106227;28;19955;-36
2023/09/11 04:28:20;;;;;;;;;;;25.70;74.80;;;;;;5102691;28;19963;-35
2023/09/11 04:30:46;;;;;;;;;;;25.70;74.90;;;;;;5103665;28;20436;-35
2023/09/11 04:33:12;;;;;;;;;;;25.70;75.00;;;;;;5109865;28;19976;-35
2023/09/11 04:35:38;;;;;;;;;;;25.70;75.00;;;;;;5106645;28;19918;-35
2023/09/11 04:38:04;;;;;;;;;;;25.70;75.00;;;;;;5104913;28;19916;-35
2023/09/11 04:40:29;;;;;;;;;;;25.70;75.10;;;;;;5105067;28;20015;-35
2023/09/11 04:42:55;;;;;;;;;;;25.70;75.10;;;;;;5118357;28;19971;-35
2023/09/11 04:45:21;;;;;;;;;;;25.60;74.90;;;;;;5104310;28;19916;-35
2023/09/11 04:47:47;;;;;;;;;;;25.60;74.80;;;;;;5111272;28;19923;-35
2023/09/11 04:50:13;;;;;;;;;;;25.60;74.90;;;;;;5112621;28;19922;-35
2023/09/11 04:52:39;;;;;;;;;;;25.60;74.80;;;;;;5108096;28;19946;-35
2023/09/11 04:55:05;;;;;;;;;;;25.60;74.80;;;;;;5114802;28;19983;-35
2023/09/11 04:57:31;;;;;;;;;;;25.60;74.90;;;;;;5116445;28;19912;-35
2023/09/11 04:59:56;;;;;;;;;;;25.60;74.90;;;;;;5104788;28;19920;-35
2023/09/11 05:02:22;;;;;;;;;;;25.60;74.80;;;;;;5109704;28;19991;-35
2023/09/11 05:04:48;;;;;;;;;;;25.60;74.90;;;;;;5110516;28;19924;-35
2023/09/11 05:07:14;;;;;;;;;;;25.60;75.00;;;;;;5117291;28;19923;-35
2023/09/11 05:09:40;;;;;;;;;;;25.60;75.00;;;;;;5103173;28;19989;-35
2023/09/11 05:12:06;;;;;;;;;;;25.60;75.00;;;;;;5103990;28;19924;-35
2023/09/11 05:14:32;;;;;;;;;;;25.60;75.10;;;;;;5109117;28;19923;-35
2023/09/11 05:16:58;;;;;;;;;;;25.50;75.00;;;;;;5104690;28;19915;-35
2023/09/11 05:19:23;;;;;;;;;;;25.60;75.10;;;;;;5108441;28;19939;-35
2023/09/11 05:21:49;;;;;;;;;;;25.50;75.00;;;;;;5102614;28;19938;-35
2023/09/11 05:24:15;;;;;;;;;;;25.50;75.00;;;;;;5092725;28;19916;-35
2023/09/11 05:26:41;;;;;;;;;;;25.50;74.90;;;;;;5100086;28;19980;-35
2023/09/11 05:29:07;;;;;;;;;;;25.50;75.00;;;;;;5105863;28;19926;-35
2023/09/11 05:31:33;;;;;;;;;;;25.50;74.90;;;;;;5103905;28;19927;-35
2023/09/11 05:33:59;;;;;;;;;;;25.50;74.90;;;;;;5097369;28;19916;-35
2023/09/11 05:36:24;;;;;;;;;;;25.50;75.00;;;;;;5108127;28;19916;-35
2023/09/11 05:38:50;;;;;;;;;;;25.40;74.90;;;;;;5104194;28;19947;-35
2023/09/11 05:41:20;;;;;;;;;;;25.40;74.80;;;;;;5110420;28;19920;-35
2023/09/11 05:43:46;;;;;;;;;;;25.40;74.80;;;;;;5102283;28;19922;-35
2023/09/11 05:46:11;;;;;;;;;;;25.40;74.90;;;;;;5092187;28;20360;-35
2023/09/11 05:48:37;;;;;;;;;;;25.40;75.00;;;;;;5084293;28;19921;-35
2023/09/11 05:51:03;;;;;;;;;;;25.40;74.90;;;;;;5091326;28;19951;-35
2023/09/11 05:53:29;;;;;;;;;;;25.40;75.00;;;;;;5102486;28;19916;-38
2023/09/11 05:55:55;;;;;;;;;;;25.40;75.20;;;;;;5105227;28;19915;-35
2023/09/11 05:58:21;;;;;;;;;;;25.40;75.10;;;;;;5105350;28;20756;-35
2023/09/11 06:00:48;;;;;;;;;;;25.40;75.10;;;;;;5108951;28;19969;-35
2023/09/11 06:03:13;;;;;;;;;;;25.40;75.10;;;;;;5103243;28;19920;-35
2023/09/11 06:05:59;;;;;;;;;;;25.40;75.10;;;;;;5061373;28;19927;-36
2023/09/11 06:08:25;;;;;;;;;;;25.40;75.10;;;;;;5067272;28;20008;-35
2023/09/11 06:10:52;;;;;;;;;;;25.30;75.00;;;;;;5065613;28;19942;-35
2023/09/11 06:13:18;;;;;;;;;;;25.40;75.10;;;;;;5049331;28;19925;-35
2023/09/11 06:15:44;;;;;;;;;;;25.30;74.90;;;;;;5064549;28;19912;-35
2023/09/11 06:18:09;;;;;;;;;;;25.30;75.00;;;;;;5052737;28;19920;-35
2023/09/11 06:20:35;;;;;;;;;;;25.30;75.00;;;;;;5072247;28;20507;-35
2023/09/11 06:23:02;;;;;;;;;;;25.30;75.10;;;;;;5067629;28;19932;-35
2023/09/11 06:25:28;;;;;;;;;;;25.30;75.10;;;;;;5054391;28;20091;-35
2023/09/11 06:27:54;;;;;;;;;;;25.30;75.10;;;;;;5066418;28;19917;-35
2023/09/11 06:30:19;;;;;;;;;;;25.30;75.20;;;;;;5049674;28;19974;-35
2023/09/11 06:32:45;;;;;;;;;;;25.30;75.20;;;;;;5053880;28;20488;-37
2023/09/11 06:35:11;;;;;;;;;;;25.30;75.20;;;;;;5048095;28;19928;-35
2023/09/11 06:37:37;;;;;;;;;;;25.20;75.20;;;;;;5065404;28;19916;-35
2023/09/11 06:40:07;;;;;;;;;;;25.20;75.20;;;;;;5067417;28;19917;-35
2023/09/11 06:42:33;;;;;;;;;;;25.20;75.20;;;;;;5064087;28;19977;-35
2023/09/11 06:44:59;;;;;;;;;;;25.20;75.20;;;;;;5102988;28;19908;-36
2023/09/11 06:47:25;;;;;;;;;;;25.20;75.20;;;;;;5108163;28;20003;-36
2023/09/11 06:49:51;;;;;;;;;;;25.20;75.10;;;;;;5120095;28;19912;-36
2023/09/11 06:52:18;;;;;;;;;;;25.20;75.20;;;;;;5109111;28;20021;-36
2023/09/11 06:54:43;;;;;;;;;;;25.20;75.20;;;;;;5109545;28;19915;-38
2023/09/11 06:57:09;;;;;;;;;;;25.20;75.10;;;;;;5092254;28;19920;-36
2023/09/11 06:59:35;;;;;;;;;;;25.20;75.20;;;;;;5106519;28;20253;-35
2023/09/11 07:02:01;;;;;;;;;;;25.20;75.20;;;;;;5102963;28;19916;-36
2023/09/11 07:04:27;;;;;;;;;;;25.20;75.30;;;;;;5099601;28;19919;-35
2023/09/11 07:06:56;;;;;;;;;;;25.10;75.10;;;;;;5100160;28;19920;-36
2023/09/11 07:09:22;;;;;;;;;;;25.10;75.20;;;;;;5102553;28;19923;-36
2023/09/11 07:11:48;;;;;;;;;;;25.10;75.20;;;;;;5102582;28;19921;-36
2023/09/11 07:14:18;;;;;;;;;;;25.10;75.30;;;;;;5080420;28;19912;-36
2023/09/11 07:16:44;;;;;;;;;;;25.10;75.30;;;;;;5098057;28;19920;-36
2023/09/11 07:19:10;;;;;;;;;;;25.10;75.30;;;;;;5094384;28;19943;-36
2023/09/11 07:21:36;;;;;;;;;;;25.10;75.40;;;;;;5101281;28;19911;-36
2023/09/11 07:24:02;;;;;;;;;;;25.10;75.30;;;;;;5099192;28;19945;-35
2023/09/11 07:26:28;;;;;;;;;;;25.10;75.30;;;;;;5097787;28;20276;-36
2023/09/11 07:28:55;;;;;;;;;;;25.10;75.30;;;;;;5109394;28;19961;-36
2023/09/11 07:31:21;;;;;;;;;;;25.00;75.30;;;;;;5103143;28;20011;-36
2023/09/11 07:33:47;;;;;;;;;;;25.00;75.30;;;;;;5091404;28;19982;-36
2023/09/11 07:36:13;;;;;;;;;;;25.00;75.30;;;;;;5104081;28;19916;-35
2023/09/11 07:38:44;;;;;;;;;;;25.00;75.30;;;;;;5102933;28;19908;-35
2023/09/11 07:41:11;;;;;;;;;;;25.00;75.30;;;;;;5104499;28;19923;-35
2023/09/11 07:43:36;;;;;;;;;;;25.00;75.30;;;;;;5111625;28;19916;-36
2023/09/11 07:46:02;;;;;;;;;;;25.00;75.20;;;;;;5107773;28;20026;-36
2023/09/11 07:48:28;;;;;;;;;;;25.00;75.30;;;;;;5111669;28;19986;-36
2023/09/11 07:50:57;;;;;;;;;;;25.00;75.30;;;;;;5111184;28;20443;-36
2023/09/11 07:53:23;;;;;;;;;;;25.00;75.40;;;;;;5098289;28;19920;-35
2023/09/11 07:55:49;;;;;;;;;;;25.00;75.40;;;;;;5105413;28;19916;-36
2023/09/11 07:58:16;;;;;;;;;;;24.90;75.40;;;;;;5104843;28;19965;-36
2023/09/11 08:00:42;;;;;;;;;;;24.90;75.40;;;;;;5104844;28;19923;-36
2023/09/11 08:03:08;;;;;;;;;;;24.90;75.40;;;;;;5113303;28;19938;-35
2023/09/11 08:05:34;;;;;;;;;;;24.90;75.50;;;;;;5104969;28;19912;-36
2023/09/11 08:08:02;;;;;;;;;;;24.90;75.50;;;;;;5103683;28;19920;-36
2023/09/11 08:10:28;;;;;;;;;;;24.90;75.40;;;;;;5105458;28;20276;-36
2023/09/11 08:12:54;;;;;;;;;;;24.90;75.40;;;;;;5100062;28;19935;-36
2023/09/11 08:15:20;;;;;;;;;;;24.80;75.30;;;;;;5105135;28;19916;-36
2023/09/11 08:17:46;;;;;;;;;;;24.80;75.40;;;;;;5101912;28;19916;-36
2023/09/11 08:20:12;;;;;;;;;;;24.80;75.30;;;;;;5113417;28;19948;-36
2023/09/11 08:22:39;;;;;;;;;;;24.80;75.40;;;;;;5111231;28;19912;-36
2023/09/11 08:25:05;;;;;;;;;;;24.80;75.30;;;;;;5118959;28;19919;-36
2023/09/11 08:27:31;;;;;;;;;;;24.80;75.40;;;;;;5104312;28;19916;-36
2023/09/11 08:29:57;;;;;;;;;;;24.80;75.50;;;;;;5092725;28;19984;-35
2023/09/11 08:32:23;;;;;;;;;;;24.80;75.50;;;;;;5105282;28;20039;-35
2023/09/11 08:34:49;;;;;;;;;;;24.80;75.50;;;;;;5103359;28;19913;-35
2023/09/11 08:37:15;;;;;;;;;;;24.80;75.50;;;;;;5105427;28;19923;-35
2023/09/11 08:39:41;;;;;;;;;;;24.80;75.60;;;;;;5112745;28;19916;-35
2023/09/11 08:42:07;;;;;;;;;;;24.80;75.60;;;;;;5111550;28;19928;-35
2023/09/11 08:44:33;;;;;;;;;;;24.80;75.60;;;;;;5091118;28;19912;-35
2023/09/11 08:47:00;;;;;;;;;;;24.80;75.60;;;;;;5099521;28;20747;-35
2023/09/11 08:49:27;;;;;;;;;;;24.70;75.50;;;;;;5109635;28;19912;-35
2023/09/11 08:51:53;;;;;;;;;;;24.80;75.70;;;;;;5104259;28;19942;-35
2023/09/11 08:54:19;;;;;;;;;;;24.70;75.60;;;;;;5111161;28;19920;-34
2023/09/11 08:56:45;;;;;;;;;;;24.70;75.60;;;;;;5104488;28;19916;-35
2023/09/11 08:59:11;;;;;;;;;;;24.70;75.50;;;;;;5081778;28;20380;-35
2023/09/11 09:01:38;;;;;;;;;;;24.70;75.50;;;;;;5107024;28;19920;-34
2023/09/11 09:04:04;;;;;;;;;;;24.70;75.50;;;;;;5077087;28;20404;-35
2023/09/11 09:06:29;;;;;;;;;;;24.70;75.60;;;;;;5097244;28;19921;-35
2023/09/11 09:08:55;;;;;;;;;;;24.70;75.60;;;;;;5104221;28;19920;-35
2023/09/11 09:11:21;;;;;;;;;;;24.70;75.60;;;;;;5107114;28;20589;-35
2023/09/11 09:13:47;;;;;;;;;;;24.70;75.60;;;;;;5100392;28;19916;-35
2023/09/11 09:16:13;;;;;;;;;;;24.60;75.60;;;;;;5114449;28;19919;-35
2023/09/11 09:18:44;;;;;;;;;;;24.60;75.60;;;;;;5113955;28;19995;-34
2023/09/11 09:21:09;;;;;;;;;;;24.60;75.70;;;;;;5093652;28;19989;-35
2023/09/11 09:23:35;;;;;;;;;;;24.60;75.60;;;;;;5103417;28;19920;-35
2023/09/11 09:26:07;;;;;;;;;;;24.60;75.80;;;;;;5112699;28;19923;-36
2023/09/11 09:28:34;;;;;;;;;;;24.60;75.70;;;;;;5108913;28;19912;-35
2023/09/11 09:31:00;;;;;;;;;;;24.60;75.80;;;;;;5100690;28;20423;-35
2023/09/11 09:33:25;;;;;;;;;;;24.60;75.70;;;;;;5104081;28;19926;-36
2023/09/11 09:35:51;;;;;;;;;;;24.60;75.80;;;;;;5101395;28;19943;-36
2023/09/11 09:38:20;;;;;;;;;;;24.60;75.70;;;;;;5083697;28;20524;-36
2023/09/11 09:40:46;;;;;;;;;;;24.60;75.80;;;;;;5103517;28;19939;-39
2023/09/11 09:43:16;;;;;;;;;;;24.50;75.70;;;;;;5104805;28;19930;-35
2023/09/11 09:45:42;;;;;;;;;;;24.60;75.80;;;;;;5103565;28;19916;-35
2023/09/11 09:48:09;;;;;;;;;;;24.50;75.70;;;;;;5104860;28;19983;-35
2023/09/11 09:50:49;;;;;;;;;;;24.50;75.70;;;;;;5084834;28;19912;-36
2023/09/11 09:53:21;;;;;;;;;;;24.50;75.70;;;;;;5102847;28;19992;-36
2023/09/11 09:55:47;;;;;;;;;;;24.50;75.70;;;;;;5111916;28;19916;-35
2023/09/11 09:58:13;;;;;;;;;;;24.50;75.80;;;;;;5087652;28;19923;-35
2023/09/11 10:00:39;;;;;;;;;;;24.50;75.80;;;;;;5110781;28;20004;-36
2023/09/11 10:03:04;;;;;;;;;;;24.50;75.90;;;;;;5091709;28;19916;-35
2023/09/11 10:05:30;;;;;;;;;;;24.50;75.90;;;;;;5102859;28;19947;-36
2023/09/11 10:07:58;;;;;;;;;;;24.50;76.00;;;;;;5110669;28;20420;-35
2023/09/11 10:10:25;;;;;;;;;;;24.50;76.00;;;;;;5101467;28;19915;-35
2023/09/11 10:13:00;;;;;;;;;;;24.50;75.90;;;;;;5110796;28;19922;-35
2023/09/11 10:15:26;;;;;;;;;;;24.50;76.00;;;;;;5086628;28;19948;-36
2023/09/11 10:17:55;;;;;;;;;;;24.50;75.90;;;;;;5101197;28;19917;-35
2023/09/11 10:20:21;;;;;;;;;;;24.40;75.90;;;;;;5100438;28;20298;-36
2023/09/11 10:22:47;;;;;;;;;;;24.40;75.90;;;;;;5102921;28;19916;-36
2023/09/11 10:25:13;;;;;;;;;;;24.40;75.90;;;;;;5096102;28;19916;-35
2023/09/11 10:27:39;;;;;;;;;;;24.40;75.80;;;;;;5101426;28;19916;-36
2023/09/11 10:30:05;;;;;;;;;;;24.40;75.90;;;;;;5090199;28;19915;-36
2023/09/11 10:32:38;;;;;;;;;;;24.40;75.90;;;;;;5106978;28;19925;-36
2023/09/11 10:35:05;;;;;;;;;;;24.40;75.90;;;;;;5092792;28;19923;-36
2023/09/11 10:37:31;;;;;;;;;;;24.40;75.90;;;;;;5086811;28;19919;-35
2023/09/11 10:39:57;;;;;;;;;;;24.40;75.90;;;;;;5099736;28;19942;-36
2023/09/11 10:42:23;;;;;;;;;;;24.40;75.90;;;;;;5095838;28;19930;-35
2023/09/11 10:44:52;;;;;;;;;;;24.30;75.90;;;;;;5103502;28;19916;-36
2023/09/11 10:47:18;;;;;;;;;;;24.30;76.00;;;;;;5110439;28;19923;-36
2023/09/11 10:49:44;;;;;;;;;;;24.30;76.00;;;;;;5092501;28;19912;-35
2023/09/11 10:52:10;;;;;;;;;;;24.30;75.90;;;;;;5103423;28;19930;-35
2023/09/11 10:54:36;;;;;;;;;;;24.30;75.90;;;;;;5090266;28;19916;-36
2023/09/11 10:57:02;;;;;;;;;;;24.30;75.90;;;;;;5107691;28;19917;-36
2023/09/11 10:59:28;;;;;;;;;;;24.30;76.00;;;;;;5077399;28;19916;-35
2023/09/11 11:01:54;;;;;;;;;;;24.30;76.00;;;;;;5068516;28;19917;-35
2023/09/11 11:04:22;;;;;;;;;;;24.30;75.90;;;;;;5104175;28;19943;-36
2023/09/11 11:06:49;;;;;;;;;;;24.30;76.00;;;;;;5108320;28;19923;-36
2023/09/11 11:09:26;;;;;;;;;;;24.30;75.90;;;;;;5106334;28;19939;-35
2023/09/11 11:11:52;;;;;;;;;;;24.20;76.00;;;;;;5100154;28;19924;-36
2023/09/11 11:14:21;;;;;;;;;;;24.30;76.00;;;;;;5093668;28;20656;-35
2023/09/11 11:17:00;;;;;;;;;;;24.30;75.90;;;;;;5110177;28;19916;-35
2023/09/11 11:19:27;;;;;;;;;;;24.20;76.00;;;;;;5111248;28;19918;-35
2023/09/11 11:21:52;;;;;;;;;;;24.20;75.90;;;;;;5105796;28;19938;-35
2023/09/11 11:24:18;;;;;;;;;;;24.20;76.00;;;;;;5112779;28;20459;-36
2023/09/11 11:26:44;;;;;;;;;;;24.20;76.00;;;;;;5094314;28;20004;-35
2023/09/11 11:29:10;;;;;;;;;;;24.20;76.00;;;;;;5095747;28;19943;-35
2023/09/11 11:31:36;;;;;;;;;;;24.20;76.00;;;;;;5100565;28;19971;-35
2023/09/11 11:34:02;;;;;;;;;;;24.20;76.00;;;;;;5090106;28;19919;-35
2023/09/11 11:36:29;;;;;;;;;;;24.10;76.10;;;;;;5120427;28;19923;-36
2023/09/11 11:38:55;;;;;;;;;;;24.10;76.10;;;;;;5103826;28;19912;-35
2023/09/11 11:41:22;;;;;;;;;;;24.10;76.10;;;;;;5102988;28;19928;-36
2023/09/11 11:43:48;;;;;;;;;;;24.10;76.00;;;;;;5104122;28;19927;-35
2023/09/11 11:46:15;;;;;;;;;;;24.10;76.00;;;;;;5105345;28;19916;-35
2023/09/11 11:48:41;;;;;;;;;;;24.10;76.00;;;;;;5105159;28;19912;-35
2023/09/11 11:51:07;;;;;;;;;;;24.10;76.10;;;;;;5113930;28;19954;-36
2023/09/11 11:53:33;;;;;;;;;;;24.10;76.00;;;;;;5103936;28;19916;-35
2023/09/11 11:55:59;;;;;;;;;;;24.10;76.00;;;;;;5104673;28;19916;-35
2023/09/11 11:58:28;;;;;;;;;;;24.10;76.00;;;;;;5085116;28;19950;-36
2023/09/11 12:00:59;;;;;;;;;;;24.10;76.00;;;;;;5103529;28;19916;-36
2023/09/11 12:03:30;;;;;;;;;;;24.10;76.10;;;;;;5105012;28;19958;-36
2023/09/11 12:05:56;;;;;;;;;;;24.10;76.10;;;;;;5095615;28;19912;-35
2023/09/11 12:08:23;;;;;;;;;;;24.10;76.10;;;;;;5088004;28;19916;-36
2023/09/11 12:10:49;;;;;;;;;;;24.00;76.10;;;;;;5067442;28;19917;-35
2023/09/11 12:13:18;;;;;;;;;;;24.00;76.00;;;;;;5085555;28;19935;-35
2023/09/11 12:15:51;;;;;;;;;;;24.00;76.00;;;;;;5100068;28;19994;-35
2023/09/11 12:18:17;;;;;;;;;;;24.00;76.00;;;;;;5096092;28;19915;-36
2023/09/11 12:20:50;;;;;;;;;;;24.00;76.10;;;;;;5097699;28;19912;-35
2023/09/11 12:23:16;;;;;;;;;;;24.00;76.20;;;;;;5096360;28;20369;-35
2023/09/11 12:25:42;;;;;;;;;;;24.00;76.10;;;;;;5108674;28;19915;-35
2023/09/11 12:28:08;;;;;;;;;;;24.00;76.10;;;;;;5103857;28;20364;-36
2023/09/11 12:30:34;;;;;;;;;;;24.00;76.10;;;;;;5106002;28;19960;-37
2023/09/11 12:33:00;;;;;;;;;;;24.00;76.10;;;;;;5111993;28;19928;-35
2023/09/11 12:35:32;;;;;;;;;;;24.00;76.10;;;;;;5104864;28;20014;-36
2023/09/11 12:37:58;;;;;;;;;;;24.00;76.20;;;;;;5100040;28;19920;-38
2023/09/11 12:40:24;;;;;;;;;;;24.00;76.20;;;;;;5076551;28;19938;-36
2023/09/11 12:42:50;;;;;;;;;;;24.00;76.30;;;;;;5088075;28;20428;-36
2023/09/11 12:45:16;;;;;;;;;;;24.00;76.30;;;;;;5078549;28;19951;-35
2023/09/11 12:47:42;;;;;;;;;;;24.00;76.30;;;;;;5080925;28;19916;-35
2023/09/11 12:50:08;;;;;;;;;;;24.00;76.40;;;;;;5075750;28;19916;-36
2023/09/11 12:52:34;;;;;;;;;;;23.90;76.30;;;;;;5075568;28;19928;-36
2023/09/11 12:55:00;;;;;;;;;;;23.90;76.30;;;;;;5083891;28;19920;-36
2023/09/11 12:57:26;;;;;;;;;;;23.90;76.30;;;;;;5088987;28;19920;-36
2023/09/11 12:59:52;;;;;;;;;;;23.90;76.30;;;;;;5079696;28;19916;-36
2023/09/11 13:02:17;;;;;;;;;;;23.90;76.30;;;;;;5091875;28;19912;-36
2023/09/11 13:04:43;;;;;;;;;;;23.90;76.30;;;;;;5078471;28;19913;-36
2023/09/11 13:07:09;;;;;;;;;;;23.90;76.30;;;;;;5071315;28;19920;-36
2023/09/11 13:09:36;;;;;;;;;;;23.90;76.30;;;;;;5077336;28;20532;-36
2023/09/11 13:12:03;;;;;;;;;;;23.90;76.30;;;;;;5090692;28;19962;-36
2023/09/11 13:14:29;;;;;;;;;;;23.90;76.40;;;;;;5082522;28;19950;-35
2023/09/11 13:16:55;;;;;;;;;;;23.90;76.30;;;;;;5082002;28;19919;-36
2023/09/11 13:19:22;;;;;;;;;;;23.90;76.40;;;;;;5076790;28;19917;-36
2023/09/11 13:21:48;;;;;;;;;;;23.90;76.60;;;;;;5080805;28;19916;-35
2023/09/11 13:24:14;;;;;;;;;;;23.90;76.60;;;;;;5090279;28;19913;-36
2023/09/11 13:26:39;;;;;;;;;;;23.90;76.70;;;;;;5074763;28;19917;-36
2023/09/11 13:29:07;;;;;;;;;;;23.90;76.80;;;;;;5072867;28;19916;-36
2023/09/11 13:31:33;;;;;;;;;;;23.90;76.80;;;;;;5082461;28;19927;-36
2023/09/11 13:33:59;;;;;;;;;;;23.90;76.70;;;;;;5081484;28;19916;-35
2023/09/11 13:36:25;;;;;;;;;;;23.90;76.60;;;;;;5087037;28;19984;-36
2023/09/11 13:38:51;;;;;;;;;;;23.90;76.70;;;;;;5084242;28;20635;-35
2023/09/11 13:41:17;;;;;;;;;;;23.90;76.70;;;;;;5086020;28;20039;-36
2023/09/11 13:43:43;;;;;;;;;;;23.90;76.80;;;;;;5107339;28;19973;-36
2023/09/11 13:46:08;;;;;;;;;;;23.90;76.70;;;;;;5107164;28;19922;-35
2023/09/11 13:48:35;;;;;;;;;;;23.90;76.70;;;;;;5105759;28;19912;-36
2023/09/11 13:51:01;;;;;;;;;;;23.90;76.70;;;;;;5109289;28;19962;-36
2023/09/11 13:53:26;;;;;;;;;;;23.90;76.70;;;;;;5102858;28;19924;-36
2023/09/11 13:55:52;;;;;;;;;;;23.90;76.70;;;;;;5103279;28;19923;-36
2023/09/11 13:58:18;;;;;;;;;;;23.90;76.70;;;;;;5105936;28;19916;-36
2023/09/11 14:00:44;;;;;;;;;;;23.90;76.90;;;;;;5114920;28;20359;-36
2023/09/11 14:03:10;;;;;;;;;;;23.90;76.80;;;;;;5094258;28;19972;-36
2023/09/11 14:05:36;;;;;;;;;;;24.00;76.90;;;;;;5116206;28;19916;-36
2023/09/11 14:08:03;;;;;;;;;;;24.00;76.80;;;;;;5091872;28;19946;-36
2023/09/11 14:10:29;;;;;;;;;;;24.00;76.80;;;;;;5116303;28;19912;-36
2023/09/11 14:12:55;;;;;;;;;;;24.00;76.70;;;;;;5102731;28;19926;-36